Time;durP1;ratioP1;P1;durP2;ratioP2;P2;SDS_P1;SDS_P2;PMS_P1;PMS_P2;Temp;Humidity;BMP_temperature;BMP_pressure;BME280_temperature;BME280_humidity;BME280_pressure;Samples;Min_cycle;Max_cycle;Signal;HPM_P1;HPM_P2
2023/10/19 00:01:11;;;;;;;11.33;7.50;;;8.00;99.90;;;;;;5009933;28;20237;-75
2023/10/19 00:03:37;;;;;;;14.00;7.80;;;8.00;99.90;;;;;;5008339;28;20228;-74
2023/10/19 00:06:05;;;;;;;15.07;7.70;;;8.00;99.90;;;;;;5004476;28;20205;-75
2023/10/19 00:08:41;;;;;;;11.90;6.97;;;8.00;99.90;;;;;;5004483;28;20240;-75
2023/10/19 00:13:35;;;;;;;13.50;7.87;;;8.00;99.90;;;;;;4989696;28;20213;-74
2023/10/19 00:16:07;;;;;;;15.17;7.77;;;8.00;99.90;;;;;;4983193;28;20218;-74
2023/10/19 00:18:34;;;;;;;11.53;6.37;;;8.00;99.90;;;;;;4988123;28;20209;-75
2023/10/19 00:21:18;;;;;;;13.30;7.27;;;8.00;99.90;;;;;;4990004;28;20586;-75
2023/10/19 00:23:47;;;;;;;13.97;7.13;;;8.00;99.90;;;;;;4993141;28;20205;-75
2023/10/19 00:26:19;;;;;;;14.43;7.83;;;7.90;99.90;;;;;;4993029;28;20252;-74
2023/10/19 00:28:49;;;;;;;13.97;7.67;;;8.00;99.90;;;;;;4993841;28;20225;-75
2023/10/19 00:31:15;;;;;;;14.43;8.30;;;7.90;99.90;;;;;;4991350;28;20222;-74
2023/10/19 00:33:40;;;;;;;15.80;8.47;;;7.90;99.90;;;;;;4993736;28;20241;-76
2023/10/19 00:36:07;;;;;;;13.77;8.80;;;7.90;99.90;;;;;;4990785;28;20642;-73
2023/10/19 00:43:42;;;;;;;15.17;9.07;;;7.90;99.90;;;;;;4991486;28;20213;-74
2023/10/19 00:48:57;;;;;;;11.17;7.53;;;7.80;99.90;;;;;;4989805;28;20731;-74
2023/10/19 00:54:33;;;;;;;14.97;7.87;;;7.90;99.90;;;;;;4992140;28;20251;-75
2023/10/19 00:57:06;;;;;;;13.43;8.33;;;7.80;99.90;;;;;;4992993;28;20185;-74
2023/10/19 00:59:35;;;;;;;15.43;7.60;;;7.90;99.90;;;;;;4988317;28;20199;-74
2023/10/19 01:05:00;;;;;;;12.37;8.10;;;7.80;99.90;;;;;;4987053;28;20213;-72
2023/10/19 01:07:31;;;;;;;17.23;8.77;;;7.80;99.90;;;;;;4986483;28;20658;-75
2023/10/19 01:09:59;;;;;;;12.53;8.00;;;7.80;99.90;;;;;;4992359;28;20230;-73
2023/10/19 01:12:32;;;;;;;12.27;7.67;;;7.80;99.90;;;;;;4990616;28;20216;-74
2023/10/19 01:15:17;;;;;;;13.10;7.33;;;7.80;99.90;;;;;;4990572;28;20621;-73
2023/10/19 01:17:53;;;;;;;13.80;8.37;;;7.80;99.90;;;;;;4990116;28;20185;-75
2023/10/19 01:20:22;;;;;;;13.27;8.07;;;7.70;99.90;;;;;;4989849;28;20275;-74
2023/10/19 01:28:50;;;;;;;14.37;7.67;;;7.70;99.90;;;;;;4990877;28;20228;-75
2023/10/19 01:31:30;;;;;;;14.70;8.43;;;7.70;99.90;;;;;;4983512;28;20221;-74
2023/10/19 01:34:06;;;;;;;15.40;7.50;;;7.70;99.90;;;;;;4991720;28;20367;-71
2023/10/19 01:36:42;;;;;;;14.07;8.37;;;7.70;99.90;;;;;;4986638;28;20240;-74
2023/10/19 01:39:11;;;;;;;17.30;8.10;;;7.70;99.90;;;;;;4991578;28;20236;-75
2023/10/19 01:41:38;;;;;;;16.70;8.83;;;7.70;99.90;;;;;;4990391;28;20198;-74
2023/10/19 01:44:06;;;;;;;13.67;8.30;;;7.60;99.90;;;;;;4989869;28;20209;-74
2023/10/19 01:46:35;;;;;;;16.20;8.60;;;7.60;99.90;;;;;;4990611;28;20895;-75
2023/10/19 01:49:05;;;;;;;14.80;8.17;;;7.60;99.90;;;;;;4991530;28;20209;-74
2023/10/19 01:51:38;;;;;;;13.67;8.27;;;7.70;99.90;;;;;;4991970;28;20696;-74
2023/10/19 01:54:06;;;;;;;16.93;8.63;;;7.60;99.90;;;;;;4990816;28;20276;-72
2023/10/19 01:56:35;;;;;;;16.10;9.00;;;7.70;99.90;;;;;;4992748;28;20181;-73
2023/10/19 01:59:01;;;;;;;14.23;7.83;;;7.60;99.90;;;;;;4988557;28;20220;-74
2023/10/19 02:03:57;;;;;;;16.10;8.07;;;7.60;99.90;;;;;;4990107;28;20225;-74
2023/10/19 02:09:09;;;;;;;16.50;9.63;;;7.60;99.90;;;;;;4991120;28;20212;-74
2023/10/19 02:11:37;;;;;;;18.43;9.43;;;7.60;99.90;;;;;;4987879;28;20228;-74
2023/10/19 02:14:11;;;;;;;16.50;8.83;;;7.60;99.90;;;;;;4988934;28;20322;-75
2023/10/19 02:16:37;;;;;;;15.00;8.57;;;7.60;99.90;;;;;;4978073;28;20205;-73
2023/10/19 02:19:03;;;;;;;18.87;9.07;;;7.60;99.90;;;;;;4989416;28;20217;-74
2023/10/19 02:21:30;;;;;;;21.80;10.30;;;7.60;99.90;;;;;;4990919;28;20210;-74
2023/10/19 02:23:57;;;;;;;15.13;9.13;;;7.60;99.90;;;;;;4982847;28;20376;-72
2023/10/19 02:26:25;;;;;;;20.60;9.03;;;7.60;99.90;;;;;;4990702;28;20214;-74
2023/10/19 02:28:51;;;;;;;17.70;8.90;;;7.60;99.90;;;;;;4985047;28;20206;-74
2023/10/19 02:31:24;;;;;;;16.67;9.30;;;7.60;99.90;;;;;;4989893;28;20232;-74
2023/10/19 02:34:00;;;;;;;15.53;8.93;;;7.60;99.90;;;;;;4986773;28;20206;-74
2023/10/19 02:36:31;;;;;;;21.10;10.07;;;7.60;99.90;;;;;;4990838;28;20209;-73
2023/10/19 02:38:58;;;;;;;17.10;9.07;;;7.60;99.90;;;;;;4990936;28;20182;-72
2023/10/19 02:41:26;;;;;;;16.97;9.07;;;7.60;99.90;;;;;;4988581;28;20264;-72
2023/10/19 02:46:29;;;;;;;14.53;8.53;;;7.60;99.90;;;;;;4989031;28;20308;-73
2023/10/19 02:48:55;;;;;;;18.33;8.77;;;7.70;99.90;;;;;;4990802;28;20237;-73
2023/10/19 02:51:21;;;;;;;16.53;9.53;;;7.60;99.90;;;;;;4988266;28;20276;-73
2023/10/19 02:53:46;;;;;;;16.70;9.07;;;7.70;99.90;;;;;;4988947;28;20185;-72
2023/10/19 02:56:12;;;;;;;15.13;9.17;;;7.60;99.90;;;;;;4984314;28;20209;-73
2023/10/19 02:58:48;;;;;;;16.50;9.63;;;7.60;99.90;;;;;;4987296;28;20569;-73
2023/10/19 03:01:22;;;;;;;17.43;8.80;;;7.60;99.90;;;;;;4989209;28;20225;-74
2023/10/19 03:03:53;;;;;;;19.00;9.07;;;7.60;99.90;;;;;;4989511;28;20773;-75
2023/10/19 03:06:22;;;;;;;17.83;8.40;;;7.70;99.90;;;;;;4988911;28;20272;-73
2023/10/19 03:08:57;;;;;;;21.53;10.37;;;7.70;99.90;;;;;;4991673;28;20585;-74
2023/10/19 03:11:27;;;;;;;15.23;8.17;;;7.60;99.90;;;;;;4983679;28;20375;-73
2023/10/19 03:13:57;;;;;;;18.77;9.40;;;7.60;99.90;;;;;;4990098;28;20649;-74
2023/10/19 03:16:23;;;;;;;16.80;9.47;;;7.60;99.90;;;;;;4987042;28;20680;-73
2023/10/19 03:18:49;;;;;;;16.33;8.57;;;7.60;99.90;;;;;;4994959;28;20209;-73
2023/10/19 03:21:16;;;;;;;16.20;9.80;;;7.60;99.90;;;;;;4992268;28;20197;-73
2023/10/19 03:23:42;;;;;;;16.07;9.07;;;7.60;99.90;;;;;;4996817;28;20288;-73
2023/10/19 03:26:18;;;;;;;16.83;8.57;;;7.70;99.90;;;;;;4996988;28;20754;-73
2023/10/19 03:28:45;;;;;;;16.37;9.67;;;7.70;99.90;;;;;;4992119;28;20209;-73
2023/10/19 03:31:17;;;;;;;17.37;9.23;;;7.70;99.90;;;;;;4993135;28;20308;-73
2023/10/19 03:33:53;;;;;;;15.53;8.17;;;7.60;99.90;;;;;;4995567;28;20267;-76
2023/10/19 03:36:20;;;;;;;16.67;8.80;;;7.70;99.90;;;;;;4992333;28;20213;-74
2023/10/19 03:38:45;;;;;;;18.00;9.93;;;7.60;99.90;;;;;;4995635;28;20178;-73
2023/10/19 03:41:11;;;;;;;19.30;9.47;;;7.70;99.90;;;;;;4995265;28;20700;-74
2023/10/19 03:43:40;;;;;;;16.77;9.83;;;7.70;99.90;;;;;;4995348;28;20789;-73
2023/10/19 03:46:19;;;;;;;19.53;9.37;;;7.60;99.90;;;;;;4994516;28;20643;-73
2023/10/19 03:48:46;;;;;;;18.07;9.23;;;7.60;99.90;;;;;;4995860;28;20212;-73
2023/10/19 03:51:13;;;;;;;17.83;8.80;;;7.60;99.90;;;;;;4995125;28;20201;-74
2023/10/19 03:53:43;;;;;;;16.67;9.13;;;7.70;99.90;;;;;;4997402;28;20185;-73
2023/10/19 03:56:11;;;;;;;18.60;8.87;;;7.60;99.90;;;;;;4992475;28;20238;-73
2023/10/19 03:58:39;;;;;;;16.70;9.37;;;7.60;99.90;;;;;;4995589;28;20300;-73
2023/10/19 04:01:05;;;;;;;17.57;9.33;;;7.70;99.90;;;;;;4994378;28;20225;-74
2023/10/19 04:03:31;;;;;;;20.77;10.07;;;7.60;99.90;;;;;;4995713;28;20707;-74
2023/10/19 04:06:00;;;;;;;17.40;10.03;;;7.60;99.90;;;;;;4994318;28;20185;-75
2023/10/19 04:08:26;;;;;;;18.63;10.53;;;7.60;99.90;;;;;;4995164;28;20212;-73
2023/10/19 04:11:08;;;;;;;18.93;10.60;;;7.60;99.90;;;;;;4996299;28;20233;-73
2023/10/19 04:13:37;;;;;;;18.10;9.17;;;7.50;99.90;;;;;;4993681;28;20220;-73
2023/10/19 04:16:03;;;;;;;19.83;9.73;;;7.50;99.90;;;;;;4995321;28;20197;-74
2023/10/19 04:18:29;;;;;;;17.10;9.73;;;;;;;;;;4994273;28;20219;-74
2023/10/19 04:20:56;;;;;;;18.13;10.60;;;;;;;;;;4996439;28;20237;-72
2023/10/19 04:23:26;;;;;;;21.53;10.50;;;;;;;;;;4994984;28;20232;-73
2023/10/19 04:26:04;;;;;;;17.97;10.40;;;7.50;99.90;;;;;;4994045;28;20264;-73
2023/10/19 04:28:30;;;;;;;20.83;10.87;;;7.50;99.90;;;;;;4992281;28;20205;-73
2023/10/19 04:31:02;;;;;;;19.87;10.87;;;7.60;99.90;;;;;;4993254;28;20206;-71
2023/10/19 04:33:28;;;;;;;20.87;10.13;;;7.50;99.90;;;;;;4990457;28;20244;-75
2023/10/19 04:35:55;;;;;;;19.70;10.50;;;7.50;99.90;;;;;;4990511;28;20636;-73
2023/10/19 04:38:23;;;;;;;17.13;9.67;;;7.50;99.90;;;;;;4988500;28;20237;-74
2023/10/19 04:40:49;;;;;;;24.03;10.80;;;7.50;99.90;;;;;;4985120;28;20237;-73
2023/10/19 04:43:16;;;;;;;18.60;10.83;;;7.50;99.90;;;;;;4992325;28;20244;-74
2023/10/19 04:45:42;;;;;;;20.50;10.03;;;7.50;99.90;;;;;;4989153;28;20809;-74
2023/10/19 04:48:07;;;;;;;21.23;10.33;;;7.50;99.90;;;;;;4995075;28;20264;-73
2023/10/19 04:50:33;;;;;;;20.00;10.80;;;7.50;99.90;;;;;;4992762;28;20738;-73
2023/10/19 04:52:59;;;;;;;15.23;9.27;;;7.40;99.90;;;;;;4993067;28;20212;-74
2023/10/19 04:55:25;;;;;;;22.23;11.23;;;7.40;99.90;;;;;;4992386;28;20235;-74
2023/10/19 04:57:50;;;;;;;20.17;10.93;;;7.40;99.90;;;;;;4992519;28;20220;-74
2023/10/19 05:00:20;;;;;;;18.20;10.07;;;7.40;99.90;;;;;;4991970;28;20202;-71
2023/10/19 05:02:45;;;;;;;23.27;11.17;;;7.40;99.90;;;;;;4986617;28;20206;-73
2023/10/19 05:05:13;;;;;;;23.07;11.20;;;7.20;99.90;;;;;;4991826;28;20212;-75
2023/10/19 05:07:39;;;;;;;19.90;11.70;;;7.30;99.90;;;;;;4987008;28;20209;-73
2023/10/19 05:10:05;;;;;;;18.23;10.70;;;7.30;99.90;;;;;;4992019;28;20301;-73
2023/10/19 05:12:31;;;;;;;17.63;9.70;;;7.30;99.90;;;;;;4991679;28;20216;-74
2023/10/19 05:14:56;;;;;;;19.47;9.77;;;7.30;99.90;;;;;;4991894;28;20708;-71
2023/10/19 05:17:23;;;;;;;21.87;11.27;;;;;;;;;;4991369;28;20240;-72
2023/10/19 05:19:49;;;;;;;20.63;11.57;;;;;;;;;;4992544;28;20197;-73
2023/10/19 05:22:16;;;;;;;21.67;11.73;;;;;;;;;;4988159;28;20244;-73
2023/10/19 05:24:42;;;;;;;21.40;11.73;;;;;;;;;;4990180;28;20233;-73
2023/10/19 05:27:09;;;;;;;21.90;11.87;;;;;;;;;;4989205;28;20221;-73
2023/10/19 05:29:35;;;;;;;24.03;12.27;;;;;;;;;;4991926;28;20190;-74
2023/10/19 05:32:03;;;;;;;24.07;11.13;;;;;;;;;;4991283;28;20216;-70
2023/10/19 05:34:31;;;;;;;22.50;12.47;;;;;;;;;;4990727;28;20205;-73
2023/10/19 05:36:59;;;;;;;21.97;11.97;;;;;;;;;;4986160;28;20345;-72
2023/10/19 05:39:28;;;;;;;21.63;10.97;;;;;;;;;;4990393;28;20246;-75
2023/10/19 05:41:54;;;;;;;23.63;11.83;;;;;;;;;;4992189;28;20216;-74
2023/10/19 05:44:20;;;;;;;22.53;12.00;;;;;;;;;;4990646;28;20220;-73
2023/10/19 05:46:46;;;;;;;20.87;11.50;;;;;;;;;;4988039;28;20212;-73
2023/10/19 05:49:16;;;;;;;20.40;11.53;;;;;;;;;;4991438;28;20213;-73
2023/10/19 05:51:44;;;;;;;21.07;11.67;;;;;;;;;;4990118;28;20209;-73
2023/10/19 05:54:10;;;;;;;29.87;12.73;;;;;;;;;;4990705;28;20192;-74
2023/10/19 05:56:36;;;;;;;25.20;13.07;;;;;;;;;;4991244;28;20189;-74
2023/10/19 05:59:02;;;;;;;25.60;13.20;;;;;;;;;;4991056;28;20224;-73
2023/10/19 06:01:28;;;;;;;23.00;11.77;;;;;;;;;;4989450;28;20220;-75
2023/10/19 06:03:54;;;;;;;21.77;12.37;;;;;;;;;;4983870;28;20253;-73
2023/10/19 06:06:21;;;;;;;24.87;12.27;;;;;;;;;;4991417;28;20213;-74
2023/10/19 06:08:47;;;;;;;27.27;12.37;;;;;;;;;;4992268;28;20213;-74
2023/10/19 06:11:13;;;;;;;23.87;12.67;;;;;;;;;;4984568;28;20233;-73
2023/10/19 06:13:39;;;;;;;22.77;12.10;;;;;;;;;;5008238;22;20270;-74
2023/10/19 06:16:05;;;;;;;22.93;12.63;;;;;;;;;;4995747;28;20285;-75
2023/10/19 06:18:31;;;;;;;23.53;13.53;;;;;;;;;;4983492;28;20213;-74
2023/10/19 06:20:57;;;;;;;22.93;12.43;;;;;;;;;;4990650;28;20177;-72
2023/10/19 06:23:23;;;;;;;27.73;13.93;;;;;;;;;;4982769;28;20226;-74
2023/10/19 06:25:51;;;;;;;26.90;13.80;;;;;;;;;;4980475;28;20668;-74
2023/10/19 06:28:17;;;;;;;24.93;13.67;;;;;;;;;;4963421;28;20210;-72
2023/10/19 06:30:44;;;;;;;26.37;13.33;;;;;;;;;;4984477;28;20592;-73
2023/10/19 06:33:10;;;;;;;24.73;13.10;;;;;;;;;;4963600;28;20552;-74
2023/10/19 06:35:37;;;;;;;24.63;12.50;;;;;;;;;;4976756;28;20184;-74
2023/10/19 06:38:03;;;;;;;23.07;14.20;;;;;;;;;;4975662;28;20209;-73
2023/10/19 06:40:30;;;;;;;28.73;12.83;;;;;;;;;;4970238;28;20276;-71
2023/10/19 06:42:57;;;;;;;27.67;13.50;;;;;;;;;;4960054;28;20266;-71
2023/10/19 06:45:25;;;;;;;28.23;14.50;;;;;;;;;;4972430;28;20214;-72
2023/10/19 06:47:51;;;;;;;27.50;13.80;;;;;;;;;;4984005;28;20659;-74
2023/10/19 06:50:18;;;;;;;29.97;13.40;;;;;;;;;;4966936;28;20214;-74
2023/10/19 06:52:47;;;;;;;27.40;14.03;;;;;;;;;;4964165;28;20277;-72
2023/10/19 06:55:13;;;;;;;26.30;13.63;;;;;;;;;;4981678;28;20289;-74
2023/10/19 06:57:43;;;;;;;29.80;14.40;;;;;;;;;;4965850;28;20225;-74
2023/10/19 07:00:17;;;;;;;25.07;12.73;;;;;;;;;;4969503;28;20190;-74
2023/10/19 07:02:43;;;;;;;25.90;13.20;;;;;;;;;;4965033;28;20728;-73
2023/10/19 07:05:10;;;;;;;27.77;13.60;;;;;;;;;;4964498;28;20210;-72
2023/10/19 07:07:39;;;;;;;30.50;13.73;;;;;;;;;;4978870;28;20215;-72
2023/10/19 07:10:06;;;;;;;29.03;13.57;;;;;;;;;;4978338;28;20202;-74
2023/10/19 07:12:32;;;;;;;23.93;13.50;;;;;;;;;;4956332;28;20753;-74
2023/10/19 07:15:00;;;;;;;25.37;12.90;;;;;;;;;;4975374;28;20212;-71
2023/10/19 07:17:27;;;;;;;26.20;12.93;;;;;;;;;;4969397;28;20261;-74
2023/10/19 07:19:53;;;;;;;24.20;14.77;;;;;;;;;;4974393;28;20237;-74
2023/10/19 07:22:22;;;;;;;26.13;13.87;;;;;;;;;;4976446;28;20202;-74
2023/10/19 07:24:49;;;;;;;26.57;13.73;;;;;;;;;;4968902;28;20219;-74
2023/10/19 07:27:18;;;;;;;28.30;13.87;;;;;;;;;;4985373;28;20231;-72
2023/10/19 07:29:44;;;;;;;22.67;12.93;;;;;;;;;;4986195;28;20241;-74
2023/10/19 07:32:16;;;;;;;23.03;12.63;;;;;;;;;;4960271;28;20224;-74
2023/10/19 07:34:44;;;;;;;23.80;12.60;;;;;;;;;;4967485;28;20226;-73
2023/10/19 07:37:14;;;;;;;21.17;12.20;;;;;;;;;;4967823;28;20233;-74
2023/10/19 07:39:47;;;;;;;22.53;12.73;;;7.70;99.90;;;;;;4978980;28;20219;-74
2023/10/19 07:42:14;;;;;;;25.40;13.10;;;7.20;99.90;;;;;;4963794;28;20194;-74
2023/10/19 07:44:40;;;;;;;24.63;12.17;;;7.30;99.90;;;;;;4962288;28;20210;-74
2023/10/19 07:47:09;;;;;;;26.57;12.90;;;7.30;99.90;;;;;;4963705;28;20577;-74
2023/10/19 07:49:41;;;;;;;23.73;12.83;;;7.20;99.90;;;;;;4963965;28;20752;-74
2023/10/19 07:52:07;;;;;;;21.97;12.67;;;7.20;99.90;;;;;;4991846;28;20202;-73
2023/10/19 07:54:36;;;;;;;25.50;13.33;;;7.30;99.90;;;;;;4976947;28;20220;-74
2023/10/19 07:57:06;;;;;;;28.30;13.10;;;7.30;99.90;;;;;;4962863;28;20182;-74
2023/10/19 07:59:35;;;;;;;21.93;12.17;;;7.40;99.90;;;;;;4958697;28;20570;-75
2023/10/19 08:02:04;;;;;;;22.17;11.87;;;7.40;99.90;;;;;;4981186;28;20289;-73
2023/10/19 08:04:31;;;;;;;24.93;13.07;;;7.40;99.90;;;;;;4965780;28;20241;-74
2023/10/19 08:06:59;;;;;;;26.50;12.97;;;7.30;99.90;;;;;;4971726;28;20218;-71
2023/10/19 08:09:31;;;;;;;23.40;13.23;;;7.40;99.90;;;;;;4971868;28;20210;-74
2023/10/19 08:11:58;;;;;;;20.43;11.47;;;7.40;99.90;;;;;;4973222;28;20328;-72
2023/10/19 08:14:25;;;;;;;19.80;11.57;;;7.40;99.90;;;;;;4969490;28;20226;-74
2023/10/19 08:16:52;;;;;;;27.90;12.47;;;7.30;99.90;;;;;;4979757;28;20265;-73
2023/10/19 08:19:18;;;;;;;20.67;11.70;;;7.40;99.90;;;;;;4966042;28;20206;-72
2023/10/19 08:21:44;;;;;;;23.77;12.80;;;7.30;99.90;;;;;;4984781;28;20305;-72
2023/10/19 08:24:13;;;;;;;22.10;12.60;;;7.30;99.90;;;;;;4965068;28;20213;-74
2023/10/19 08:26:42;;;;;;;19.03;11.03;;;7.30;99.90;;;;;;4993926;28;20182;-74
2023/10/19 08:29:15;;;;;;;22.60;11.80;;;7.30;99.90;;;;;;4968966;28;20577;-74
2023/10/19 08:31:46;;;;;;;22.90;11.63;;;7.40;99.90;;;;;;4975475;28;20227;-71
2023/10/19 08:34:13;;;;;;;23.27;11.83;;;7.40;99.90;;;;;;4978430;28;20241;-70
2023/10/19 08:36:39;;;;;;;20.80;10.87;;;7.50;99.90;;;;;;4971985;28;20218;-74
2023/10/19 08:39:05;;;;;;;22.47;11.63;;;7.40;99.90;;;;;;4969756;28;20185;-73
2023/10/19 08:41:39;;;;;;;20.37;12.27;;;7.40;99.90;;;;;;4973189;28;20181;-73
2023/10/19 08:44:10;;;;;;;20.77;11.60;;;7.50;99.90;;;;;;4966727;28;20217;-73
2023/10/19 08:46:43;;;;;;;25.43;13.40;;;7.50;99.90;;;;;;4966279;28;20571;-74
2023/10/19 08:49:15;;;;;;;20.23;11.97;;;7.50;99.90;;;;;;4967494;28;20293;-74
2023/10/19 08:51:45;;;;;;;21.13;11.80;;;7.60;99.90;;;;;;4965543;28;20717;-73
2023/10/19 08:54:15;;;;;;;24.23;11.97;;;7.60;99.90;;;;;;4967385;28;20203;-74
2023/10/19 08:56:42;;;;;;;19.90;11.20;;;7.70;99.90;;;;;;4964363;28;20546;-72
2023/10/19 08:59:11;;;;;;;19.00;11.10;;;7.70;99.90;;;;;;4966639;28;20285;-74
2023/10/19 09:01:37;;;;;;;22.43;12.00;;;7.70;99.90;;;;;;4962302;28;20365;-74
2023/10/19 09:04:07;;;;;;;25.07;11.13;;;7.70;99.90;;;;;;4991046;28;20721;-73
2023/10/19 09:06:41;;;;;;;24.47;11.77;;;7.70;99.90;;;;;;4975963;28;20214;-73
2023/10/19 09:09:09;;;;;;;22.47;12.37;;;7.80;99.90;;;;;;4974896;28;20308;-74
2023/10/19 09:11:35;;;;;;;20.93;11.20;;;7.80;99.90;;;;;;4965499;28;20197;-73
2023/10/19 09:14:01;;;;;;;18.80;11.43;;;7.90;99.90;;;;;;4973121;28;20673;-73
2023/10/19 09:16:26;;;;;;;18.87;11.10;;;7.80;99.90;;;;;;4972322;28;20210;-73
2023/10/19 09:18:53;;;;;;;24.57;12.50;;;7.90;99.90;;;;;;4981910;28;20251;-74
2023/10/19 09:21:25;;;;;;;17.87;11.63;;;7.90;99.90;;;;;;4966767;28;20316;-72
2023/10/19 09:23:57;;;;;;;24.20;12.57;;;7.80;99.90;;;;;;4968706;28;20720;-73
2023/10/19 09:26:24;;;;;;;21.90;11.73;;;7.90;99.90;;;;;;4981436;28;20203;-73
2023/10/19 09:28:51;;;;;;;20.60;12.33;;;7.80;99.90;;;;;;4965544;28;20796;-74
2023/10/19 09:31:18;;;;;;;23.30;12.70;;;7.90;99.90;;;;;;4967864;28;20217;-75
2023/10/19 09:33:45;;;;;;;23.97;11.93;;;7.90;99.90;;;;;;4973642;28;20215;-75
2023/10/19 09:36:14;;;;;;;20.03;11.73;;;8.00;99.90;;;;;;4963013;28;20642;-75
2023/10/19 09:38:53;;;;;;;20.87;12.20;;;8.00;99.90;;;;;;4965125;28;20270;-72
2023/10/19 09:41:21;;;;;;;19.83;10.67;;;8.00;99.90;;;;;;4968327;28;20198;-75
2023/10/19 09:43:49;;;;;;;17.43;10.63;;;8.00;99.90;;;;;;4989032;28;20309;-75
2023/10/19 09:46:22;;;;;;;26.53;12.37;;;8.10;99.90;;;;;;4977179;28;20288;-75
2023/10/19 09:48:48;;;;;;;21.27;11.27;;;8.10;99.90;;;;;;4972369;28;20305;-72
2023/10/19 09:51:16;;;;;;;20.57;11.03;;;8.10;99.90;;;;;;4972401;28;20174;-75
2023/10/19 09:54:03;;;;;;;25.00;11.47;;;8.20;99.90;;;;;;4973871;28;20194;-75
2023/10/19 09:56:35;;;;;;;19.17;11.13;;;8.10;99.90;;;;;;4961888;28;20238;-75
2023/10/19 09:59:22;;;;;;;20.43;10.30;;;8.10;99.90;;;;;;4969325;28;20226;-74
2023/10/19 10:02:06;;;;;;;24.10;12.17;;;8.00;99.90;;;;;;4964321;28;20226;-74
2023/10/19 10:04:33;;;;;;;19.00;10.73;;;8.10;99.90;;;;;;4978572;28;20626;-74
2023/10/19 10:07:00;;;;;;;23.93;11.27;;;8.00;99.90;;;;;;4967325;28;20309;-74
2023/10/19 10:09:29;;;;;;;17.30;10.20;;;8.00;99.90;;;;;;4965671;28;20228;-74
2023/10/19 10:11:56;;;;;;;18.00;11.83;;;8.00;99.90;;;;;;4963013;28;20175;-72
2023/10/19 10:14:28;;;;;;;18.73;11.43;;;8.10;99.90;;;;;;4963890;28;20210;-74
2023/10/19 10:17:04;;;;;;;25.27;11.80;;;8.20;99.90;;;;;;4975227;28;20210;-75
2023/10/19 10:19:31;;;;;;;21.77;12.10;;;8.10;99.90;;;;;;4991395;28;20210;-75
2023/10/19 10:22:23;;;;;;;19.60;10.87;;;8.20;99.90;;;;;;4973630;28;20293;-72
2023/10/19 10:24:55;;;;;;;22.57;11.67;;;8.10;99.90;;;;;;4968969;28;20313;-75
2023/10/19 10:27:21;;;;;;;19.60;10.53;;;8.10;99.90;;;;;;4969934;28;20237;-72
2023/10/19 10:30:06;;;;;;;21.33;11.43;;;8.10;99.90;;;;;;4968996;28;20186;-75
2023/10/19 10:32:47;;;;;;;25.77;12.27;;;8.10;99.90;;;;;;4964923;28;20202;-72
2023/10/19 10:35:41;;;;;;;22.07;11.80;;;8.10;99.90;;;;;;4967418;28;20711;-75
2023/10/19 10:38:14;;;;;;;22.13;12.47;;;8.00;99.90;;;;;;4985211;28;20343;-74
2023/10/19 10:40:50;;;;;;;23.77;12.37;;;8.10;99.90;;;;;;4967005;28;20214;-75
2023/10/19 10:43:17;;;;;;;22.87;12.20;;;8.10;99.90;;;;;;4964859;28;20603;-74
2023/10/19 10:45:43;;;;;;;24.80;12.07;;;7.90;99.90;;;;;;4964466;28;20219;-75
2023/10/19 10:48:13;;;;;;;24.50;12.10;;;7.90;99.90;;;;;;4979525;28;20326;-74
2023/10/19 10:50:39;;;;;;;23.23;12.90;;;7.90;99.90;;;;;;4977603;28;20189;-74
2023/10/19 10:53:05;;;;;;;25.53;13.30;;;7.90;99.90;;;;;;4957825;28;20792;-74
2023/10/19 10:55:32;;;;;;;24.53;13.37;;;7.80;99.90;;;;;;4977353;28;20240;-73
2023/10/19 10:57:59;;;;;;;25.27;13.83;;;7.80;99.90;;;;;;4970612;28;20733;-75
2023/10/19 11:00:26;;;;;;;22.13;12.77;;;7.80;99.90;;;;;;4975031;28;20678;-73
2023/10/19 11:03:09;;;;;;;24.27;13.90;;;7.80;99.90;;;;;;4969299;28;20260;-75
2023/10/19 11:05:37;;;;;;;21.63;12.23;;;7.90;99.90;;;;;;4966549;28;20563;-75
2023/10/19 11:08:09;;;;;;;28.33;14.80;;;7.80;99.90;;;;;;4971476;28;20222;-74
2023/10/19 11:10:36;;;;;;;27.27;14.37;;;7.80;99.90;;;;;;4973382;28;20677;-74
2023/10/19 11:13:13;;;;;;;27.20;13.57;;;7.90;99.90;;;;;;4976072;28;20220;-74
2023/10/19 11:15:47;;;;;;;26.27;13.70;;;7.80;99.90;;;;;;4963591;28;20860;-74
2023/10/19 11:18:42;;;;;;;26.87;14.00;;;7.70;99.90;;;;;;4962193;28;20191;-74
2023/10/19 11:21:14;;;;;;;22.43;13.13;;;7.70;99.90;;;;;;4953957;28;20179;-73
2023/10/19 11:23:43;;;;;;;24.17;11.83;;;7.70;99.90;;;;;;4963215;28;20225;-74
2023/10/19 11:26:21;;;;;;;26.13;14.53;;;7.70;99.90;;;;;;4976218;28;20301;-74
2023/10/19 11:28:50;;;;;;;24.30;13.77;;;7.70;99.90;;;;;;4960058;28;20313;-74
2023/10/19 11:31:15;;;;;;;27.20;14.13;;;7.70;99.90;;;;;;4974015;28;20223;-74
2023/10/19 11:33:43;;;;;;;28.73;13.60;;;7.60;99.90;;;;;;4971452;28;20230;-73
2023/10/19 11:36:12;;;;;;;26.17;13.57;;;7.70;99.90;;;;;;4969704;28;20213;-74
2023/10/19 11:38:47;;;;;;;28.50;14.67;;;7.70;99.90;;;;;;4966644;28;20248;-74
2023/10/19 11:41:14;;;;;;;25.90;15.13;;;7.70;99.90;;;;;;4969224;28;20701;-73
2023/10/19 11:43:42;;;;;;;29.00;14.73;;;7.80;99.90;;;;;;4967507;28;20765;-74
2023/10/19 11:46:08;;;;;;;29.17;14.73;;;7.80;99.90;;;;;;4975214;28;20219;-74
2023/10/19 11:48:35;;;;;;;29.83;15.53;;;7.70;99.90;;;;;;4974570;28;20222;-74
2023/10/19 11:51:05;;;;;;;31.70;16.80;;;7.70;99.90;;;;;;4969937;28;20191;-74
2023/10/19 11:53:36;;;;;;;27.97;14.50;;;7.60;99.90;;;;;;4970430;28;20238;-74
2023/10/19 11:56:07;;;;;;;28.97;15.33;;;7.60;99.90;;;;;;4964119;28;20258;-74
2023/10/19 11:58:37;;;;;;;31.67;17.10;;;7.60;99.90;;;;;;4969349;28;20874;-73
2023/10/19 12:01:11;;;;;;;31.70;16.03;;;7.50;99.90;;;;;;4966595;28;20281;-73
2023/10/19 12:03:39;;;;;;;27.20;14.67;;;7.60;99.90;;;;;;4965874;28;20225;-74
2023/10/19 12:06:10;;;;;;;30.30;15.83;;;7.70;99.90;;;;;;4963888;28;20187;-72
2023/10/19 12:08:36;;;;;;;31.87;16.20;;;7.60;99.90;;;;;;4977688;28;20190;-74
2023/10/19 12:11:15;;;;;;;29.97;15.70;;;7.50;99.90;;;;;;4968353;28;20660;-72
2023/10/19 12:13:43;;;;;;;30.70;17.57;;;7.60;99.90;;;;;;4968397;28;20668;-72
2023/10/19 12:16:12;;;;;;;29.17;15.80;;;7.70;99.90;;;;;;4970877;28;20206;-74
2023/10/19 12:18:38;;;;;;;26.03;15.10;;;7.70;99.90;;;;;;4973244;28;20207;-74
2023/10/19 12:21:07;;;;;;;30.87;16.43;;;7.70;99.90;;;;;;4974766;28;20240;-73
2023/10/19 12:23:33;;;;;;;31.47;15.87;;;7.60;99.90;;;;;;4974837;28;20206;-74
2023/10/19 12:26:03;;;;;;;32.67;16.33;;;7.70;99.90;;;;;;4984658;28;20681;-74
2023/10/19 12:28:29;;;;;;;30.40;15.70;;;7.70;99.90;;;;;;4985709;28;20206;-74
2023/10/19 12:30:56;;;;;;;27.93;15.50;;;7.70;99.90;;;;;;4967571;28;20221;-74
2023/10/19 12:33:21;;;;;;;28.80;15.33;;;7.70;99.90;;;;;;4982999;28;20293;-74
2023/10/19 12:35:57;;;;;;;31.63;15.97;;;7.80;99.90;;;;;;4968856;28;20298;-73
2023/10/19 12:38:23;;;;;;;29.97;17.20;;;7.70;99.90;;;;;;4974209;28;20241;-74
2023/10/19 12:40:54;;;;;;;30.23;17.63;;;7.80;99.90;;;;;;4969697;28;20226;-72
2023/10/19 12:43:22;;;;;;;37.53;17.63;;;7.80;99.90;;;;;;4965108;28;20214;-74
2023/10/19 12:45:53;;;;;;;33.00;17.47;;;7.80;99.90;;;;;;4973866;28;20214;-76
2023/10/19 12:48:20;;;;;;;35.53;17.33;;;7.90;99.90;;;;;;4974999;28;20214;-73
2023/10/19 12:50:47;;;;;;;37.20;18.43;;;7.80;99.90;;;;;;4975532;28;20237;-73
2023/10/19 12:53:13;;;;;;;30.30;17.80;;;7.80;99.90;;;;;;4967952;28;20226;-73
2023/10/19 12:55:39;;;;;;;33.10;18.93;;;8.00;99.90;;;;;;4972643;28;20222;-73
2023/10/19 12:58:09;;;;;;;29.57;16.80;;;7.70;99.90;;;;;;4973400;28;20621;-73
2023/10/19 13:00:36;;;;;;;34.23;17.03;;;7.90;99.90;;;;;;4969735;28;20605;-74
2023/10/19 13:03:05;;;;;;;37.73;19.27;;;7.90;99.90;;;;;;4983954;28;20210;-72
2023/10/19 13:05:37;;;;;;;29.57;17.00;;;7.90;99.90;;;;;;4970443;28;20233;-72
2023/10/19 13:08:09;;;;;;;31.80;17.33;;;8.00;99.90;;;;;;4965909;28;20744;-73
2023/10/19 13:10:37;;;;;;;33.80;16.73;;;7.90;99.90;;;;;;4982466;28;20249;-74
2023/10/19 13:13:04;;;;;;;32.17;17.43;;;7.80;99.90;;;;;;4965589;28;20596;-74
2023/10/19 13:15:32;;;;;;;33.13;18.50;;;7.80;99.90;;;;;;4964750;28;20688;-73
2023/10/19 13:18:01;;;;;;;29.27;17.03;;;7.80;99.90;;;;;;4962437;28;20186;-74
2023/10/19 13:20:33;;;;;;;40.23;19.43;;;7.80;99.90;;;;;;4984737;28;20274;-73
2023/10/19 13:22:59;;;;;;;33.80;18.00;;;7.90;99.90;;;;;;4972869;28;20690;-74
2023/10/19 13:28:09;;;;;;;36.07;18.23;;;7.80;99.90;;;;;;4973756;28;20727;-74
2023/10/19 13:30:54;;;;;;;31.60;17.47;;;7.80;99.90;;;;;;4970791;28;20218;-73
2023/10/19 13:33:23;;;;;;;37.13;18.43;;;7.80;99.90;;;;;;4970976;28;20666;-74
2023/10/19 13:35:49;;;;;;;32.77;17.37;;;7.80;99.90;;;;;;4972061;28;20178;-74
2023/10/19 13:38:22;;;;;;;31.17;18.17;;;7.70;99.90;;;;;;4970491;28;20234;-74
2023/10/19 13:40:49;;;;;;;31.10;17.40;;;7.70;99.90;;;;;;4968757;28;20250;-74